Terminal Aerodrome Forecast
Issued by NWS

Home | Current Version | Previous Version | Graphics & Text | Print | Product List | Glossary On
Versions: 1 2 3 4 5 6 7 8 9 10 11 12 13
000
FTUS42 KMHX 071235 AAA
TAFOAJ
TAF AMD
KOAJ 071235Z 0713/0812 30005KT P6SM OVC009
     FM071330 33006KT P6SM SCT030
     FM080800 VRB02KT P6SM SCT007 BKN025
      AMD LTD TO CLD VIS AND WIND=

USA.gov is the U.S. government's official web portal to all federal, state and local government web resources and services.